PDT,Max TemperatureF,Mean TemperatureF,Min TemperatureF,Max Dew PointF,MeanDew PointF,Min DewpointF,Max Humidity, Mean Humidity, Min Humidity, Max Sea Level PressureIn, Mean Sea Level PressureIn, Min Sea Level PressureIn, Max VisibilityMiles, Mean VisibilityMiles, Min VisibilityMiles, Max Wind SpeedMPH, Mean Wind SpeedMPH, Max Gust SpeedMPH,PrecipitationIn, CloudCover, Events, WindDirDegrees
2013-10-1,91,75,60,33,30,26,36,20,10,29.94,29.86,29.78,10,10,10,13,5,18,0.00,0,,175
2013-10-2,90,77,64,36,32,27,31,20,12,29.88,29.79,29.71,10,10,10,20,7,26,0.00,0,,176
2013-10-3,84,74,63,33,23,3,30,17,8,30.00,29.77,29.70,10,10,10,26,12,43,0.00,0,,336
2013-10-4,72,64,57,21,18,13,22,18,14,30.32,30.19,30.03,10,10,10,20,16,31,0.00,0,,27
2013-10-5,75,64,54,22,18,14,28,18,10,30.43,30.33,30.27,10,10,10,15,9,16,0.00,0,,3
2013-10-6,81,66,52,24,18,11,30,17,7,30.32,30.20,30.08,10,10,10,7,3,,0.00,0,,299
2013-10-7,80,68,55,30,23,15,32,20,11,30.08,29.99,29.87,10,10,10,8,3,,0.00,0,,225
2013-10-8,84,68,53,26,20,12,32,18,7,29.86,29.77,29.62,10,10,10,17,5,23,0.00,0,,288
2013-10-9,66,60,53,47,34,23,80,38,21,29.71,29.62,29.55,10,10,10,20,11,25,0.01,3,,201
2013-10-10,64,58,51,45,42,39,80,59,39,30.01,29.89,29.71,10,10,7,13,7,,0.00,5,Rain,271
2013-10-11,71,59,48,42,39,36,74,49,30,30.11,30.04,29.99,10,10,10,6,3,,0.00,0,,15
2013-10-12,75,63,51,40,36,32,66,39,21,30.04,29.95,29.84,10,10,10,9,4,,0.00,0,,114
2013-10-13,77,68,60,34,31,24,38,27,15,30.05,29.89,29.82,10,10,10,26,10,83,0.00,1,,264
2013-10-14,73,64,55,35,31,23,45,31,16,30.18,30.11,30.05,10,10,10,13,8,21,0.00,0,,1
2013-10-15,73,65,57,29,26,21,32,24,14,30.15,30.08,30.02,10,10,10,17,9,29,0.00,0,,350
2013-10-16,72,62,53,28,24,19,37,25,14,30.25,30.16,30.10,10,10,10,14,7,,0.00,0,,355
2013-10-17,75,62,50,27,21,16,35,22,11,30.14,30.05,29.96,10,10,10,8,3,,0.00,0,,338
2013-10-18,78,66,54,27,21,18,28,20,11,30.17,30.09,30.03,10,10,10,8,4,,0.00,0,,346
2013-10-19,80,65,51,29,23,19,38,23,11,30.18,30.10,30.02,10,10,10,8,4,,0.00,0,,315
2013-10-20,81,68,54,28,21,16,31,19,9,30.04,29.96,29.88,10,10,10,7,3,,0.00,0,,333
2013-10-21,82,68,55,28,22,15,28,18,11,30.10,30.04,29.97,10,10,10,8,3,,0.00,0,,283
2013-10-22,81,68,54,29,25,18,38,22,10,30.14,30.06,30.00,10,10,9,9,4,,0.00,0,,301
2013-10-23,82,68,55,28,24,18,33,22,10,30.04,29.98,29.92,10,10,10,8,4,,0.00,0,,299
2013-10-24,82,70,57,32,24,20,30,19,10,30.03,29.97,29.92,10,10,10,7,2,,0.00,0,,300
2013-10-25,84,70,57,33,29,23,38,24,11,30.15,30.09,30.03,10,10,10,7,3,,0.00,0,,309
2013-10-26,82,68,55,32,28,24,40,24,12,30.22,30.13,30.05,10,10,10,8,3,,0.00,0,,309
2013-10-27,84,68,55,31,26,20,37,21,10,30.04,29.82,29.52,10,10,10,23,5,33,0.00,0,,220
2013-10-28,69,63,55,33,29,21,40,28,19,29.79,29.60,29.44,10,10,10,40,25,52,0.00,0,,228
2013-10-29,63,56,48,36,32,27,54,43,26,29.97,29.90,29.80,10,10,10,16,8,23,0.00,3,,264
2013-10-30,64,56,48,37,30,25,59,40,22,30.11,30.06,29.99,10,10,10,15,8,,0.00,1,,360
2013-10-31,68,56,46,30,26,22,43,32,21,30.23,30.16,30.12,10,10,10,10,5,,0.00,0,,317